Time;durP1;ratioP1;P1;durP2;ratioP2;P2;SDS_P1;SDS_P2;PMS_P1;PMS_P2;Temp;Humidity;BMP_temperature;BMP_pressure;BME280_temperature;BME280_humidity;BME280_pressure;Samples;Min_cycle;Max_cycle;Signal;HPM_P1;HPM_P2
2021/10/26 00:00:49;;;;;;;;;77.75;68.00;14.90;41.50;;;;;;5095408;28;9409;-59
2021/10/26 00:03:15;;;;;;;;;70.00;58.75;14.90;41.20;;;;;;5095357;28;8763;-60
2021/10/26 00:05:41;;;;;;;;;71.25;59.00;14.90;41.50;;;;;;5095351;28;8914;-59
2021/10/26 00:08:07;;;;;;;;;69.75;57.25;14.80;41.30;;;;;;5095524;28;9582;-59
2021/10/26 00:10:33;;;;;;;;;68.50;56.25;14.80;40.90;;;;;;5095296;28;8890;-60
2021/10/26 00:12:59;;;;;;;;;63.50;53.25;14.80;41.10;;;;;;5095179;28;8764;-59
2021/10/26 00:15:25;;;;;;;;;63.50;53.50;14.70;41.00;;;;;;5095225;28;8859;-59
2021/10/26 00:17:51;;;;;;;;;60.00;51.00;14.80;41.50;;;;;;5095074;28;8836;-59
2021/10/26 00:20:17;;;;;;;;;71.75;59.00;14.80;41.20;;;;;;5095467;28;8752;-59
2021/10/26 00:22:43;;;;;;;;;72.50;58.75;14.70;41.00;;;;;;5094977;28;8775;-58
2021/10/26 00:25:09;;;;;;;;;66.50;55.25;14.80;41.00;;;;;;5095049;28;8759;-59
2021/10/26 00:27:35;;;;;;;;;64.00;54.00;14.70;41.30;;;;;;5095269;28;8770;-59
2021/10/26 00:30:01;;;;;;;;;63.25;52.25;14.70;41.00;;;;;;5095213;28;8752;-59
2021/10/26 00:32:27;;;;;;;;;55.00;46.00;14.70;41.10;;;;;;5094847;28;8767;-59
2021/10/26 00:34:52;;;;;;;;;51.50;44.50;14.70;41.00;;;;;;5095137;28;9464;-59
2021/10/26 00:37:18;;;;;;;;;52.25;44.50;14.70;41.20;;;;;;5094016;28;8938;-59
2021/10/26 00:39:45;;;;;;;;;51.00;43.50;14.70;41.10;;;;;;5094754;28;8788;-59
2021/10/26 00:42:11;;;;;;;;;49.75;42.75;14.70;41.10;;;;;;5094942;28;8784;-59
2021/10/26 00:44:37;;;;;;;;;47.00;41.00;14.70;40.90;;;;;;5095016;28;9429;-59
2021/10/26 00:47:04;;;;;;;;;47.25;41.75;14.80;41.20;;;;;;5094759;28;8764;-59
2021/10/26 00:49:30;;;;;;;;;49.25;42.25;14.70;41.10;;;;;;5094651;28;8787;-59
2021/10/26 00:51:56;;;;;;;;;52.00;44.50;14.70;41.20;;;;;;5094401;28;8884;-59
2021/10/26 00:54:24;;;;;;;;;51.25;43.75;14.60;41.50;;;;;;5094636;28;8771;-59
2021/10/26 00:56:51;;;;;;;;;54.25;45.50;14.60;41.50;;;;;;5094620;28;8776;-59
2021/10/26 00:59:17;;;;;;;;;31.25;31.25;14.70;41.60;;;;;;5094734;28;9457;-59
2021/10/26 01:01:43;;;;;;;;;56.25;48.00;14.60;41.40;;;;;;5094440;28;8780;-59
2021/10/26 01:04:08;;;;;;;;;58.00;49.00;14.60;41.50;;;;;;5094623;28;8764;-59
2021/10/26 01:06:35;;;;;;;;;63.75;52.25;14.60;41.40;;;;;;5094678;28;8784;-59
2021/10/26 01:09:04;;;;;;;;;65.75;54.50;14.60;41.30;;;;;;5094492;28;8768;-59
2021/10/26 01:11:31;;;;;;;;;66.75;55.50;14.50;41.40;;;;;;5094174;28;8771;-59
2021/10/26 01:13:58;;;;;;;;;70.00;57.00;14.60;41.40;;;;;;5094639;28;8782;-58
2021/10/26 01:16:25;;;;;;;;;79.75;68.00;14.60;41.40;;;;;;5094346;28;8917;-56
2021/10/26 01:18:52;;;;;;;;;83.75;77.00;14.60;41.40;;;;;;5094246;28;8800;-59
2021/10/26 01:21:18;;;;;;;;;77.75;65.25;14.50;41.50;;;;;;5094280;28;8763;-59
2021/10/26 01:23:44;;;;;;;;;80.00;70.75;14.50;41.20;;;;;;5094343;28;8854;-59
2021/10/26 01:26:10;;;;;;;;;76.50;64.75;14.50;41.50;;;;;;5094273;28;8764;-59
2021/10/26 01:28:35;;;;;;;;;73.00;60.50;14.50;41.60;;;;;;5094298;28;8837;-59
2021/10/26 01:31:02;;;;;;;;;75.50;64.25;14.50;41.50;;;;;;5094177;28;8760;-60
2021/10/26 01:33:28;;;;;;;;;73.75;60.00;14.40;41.40;;;;;;5094520;28;8766;-59
2021/10/26 01:35:54;;;;;;;;;75.25;63.00;14.40;41.60;;;;;;5094034;28;8815;-59
2021/10/26 01:38:24;;;;;;;;;79.50;66.00;14.40;41.50;;;;;;5094402;28;9471;-59
2021/10/26 01:40:51;;;;;;;;;76.25;62.50;14.30;41.50;;;;;;5093981;28;8782;-59
2021/10/26 01:43:17;;;;;;;;;70.75;59.00;14.30;41.60;;;;;;5094214;28;8776;-59
2021/10/26 01:45:43;;;;;;;;;75.25;62.25;14.30;41.80;;;;;;5094121;28;8767;-59
2021/10/26 01:48:09;;;;;;;;;67.25;55.75;14.30;41.90;;;;;;5096092;28;8778;-59
2021/10/26 01:50:35;;;;;;;;;73.50;60.00;14.30;41.70;;;;;;5096220;28;8787;-59
2021/10/26 01:53:01;;;;;;;;;60.50;50.25;14.30;41.80;;;;;;5098242;28;8776;-59
2021/10/26 01:55:27;;;;;;;;;67.00;55.75;14.30;41.60;;;;;;5097854;28;8752;-59
2021/10/26 01:57:53;;;;;;;;;68.50;56.75;14.10;41.80;;;;;;5097727;28;8779;-59
2021/10/26 02:00:20;;;;;;;;;66.25;49.50;14.10;41.90;;;;;;5097766;28;8817;-59
2021/10/26 02:02:48;;;;;;;;;64.25;53.25;14.20;41.90;;;;;;5097998;28;8767;-57
2021/10/26 02:05:15;;;;;;;;;57.25;48.00;14.10;41.20;;;;;;5097844;28;8799;-59
2021/10/26 02:07:41;;;;;;;;;58.50;49.75;14.00;41.30;;;;;;5097870;28;8858;-59
2021/10/26 02:10:08;;;;;;;;;58.00;50.00;14.00;41.40;;;;;;5097831;28;8786;-59
2021/10/26 02:12:34;;;;;;;;;59.00;49.50;13.90;41.50;;;;;;5097925;28;9412;-59
2021/10/26 02:15:00;;;;;;;;;57.25;49.00;13.90;41.60;;;;;;5097579;28;8748;-59
2021/10/26 02:17:26;;;;;;;;;60.00;51.00;14.00;41.40;;;;;;5097732;28;9456;-59
2021/10/26 02:19:52;;;;;;;;;60.25;51.50;14.00;41.10;;;;;;5097489;28;8831;-59
2021/10/26 02:22:18;;;;;;;;;53.75;46.50;14.00;41.30;;;;;;5079453;28;8844;-58
2021/10/26 02:24:44;;;;;;;;;53.75;46.00;14.00;41.10;;;;;;5097328;28;8837;-59
2021/10/26 02:27:11;;;;;;;;;57.00;49.00;14.10;41.00;;;;;;5097296;28;8783;-59
2021/10/26 02:29:37;;;;;;;;;59.25;50.25;14.10;41.10;;;;;;5097537;28;8811;-59
2021/10/26 02:32:05;;;;;;;;;80.00;66.25;14.00;41.10;;;;;;5097115;28;8776;-59
2021/10/26 02:34:31;;;;;;;;;85.00;74.75;14.00;41.00;;;;;;5097150;28;8755;-59
2021/10/26 02:36:56;;;;;;;;;85.25;75.00;14.00;40.90;;;;;;5096920;28;8796;-58
2021/10/26 02:39:22;;;;;;;;;73.00;60.25;13.90;40.80;;;;;;5096986;28;8796;-59
2021/10/26 02:41:48;;;;;;;;;69.75;57.50;13.90;40.70;;;;;;5096946;28;8768;-59
2021/10/26 02:44:14;;;;;;;;;64.25;53.25;13.70;40.90;;;;;;5097258;28;8772;-59
2021/10/26 02:46:40;;;;;;;;;50.25;43.75;13.70;41.00;;;;;;5096894;28;8768;-59
2021/10/26 02:49:06;;;;;;;;;57.50;49.00;13.60;41.20;;;;;;5097068;28;8763;-59
2021/10/26 02:51:32;;;;;;;;;59.25;50.25;13.50;41.40;;;;;;5096823;28;8778;-59
2021/10/26 02:53:59;;;;;;;;;59.75;50.75;13.60;41.40;;;;;;5096824;28;8896;-58
2021/10/26 02:56:24;;;;;;;;;56.75;48.75;13.40;41.60;;;;;;5096689;28;8882;-59
2021/10/26 02:58:51;;;;;;;;;58.50;50.50;13.40;41.70;;;;;;5096099;28;8906;-59
2021/10/26 03:01:16;;;;;;;;;56.75;48.75;13.40;42.00;;;;;;5096320;28;8764;-59
2021/10/26 03:03:42;;;;;;;;;53.50;46.75;13.40;42.00;;;;;;5096556;28;8867;-59
2021/10/26 03:06:08;;;;;;;;;55.75;47.50;13.30;42.40;;;;;;5096716;28;8784;-59
2021/10/26 03:08:34;;;;;;;;;57.50;49.25;13.30;42.20;;;;;;5096610;28;8887;-59
2021/10/26 03:11:00;;;;;;;;;58.00;49.25;13.20;42.30;;;;;;5096425;28;8768;-59
2021/10/26 03:13:26;;;;;;;;;44.00;40.00;13.30;42.40;;;;;;5096413;28;8936;-59
2021/10/26 03:15:52;;;;;;;;;55.00;46.75;13.30;42.40;;;;;;5096373;28;8895;-58
2021/10/26 03:18:18;;;;;;;;;57.50;49.50;13.20;42.40;;;;;;5096199;28;8787;-59
2021/10/26 03:20:44;;;;;;;;;59.00;50.75;13.20;42.40;;;;;;5096379;28;8770;-59
2021/10/26 03:23:11;;;;;;;;;60.25;51.25;13.10;42.60;;;;;;5096308;28;8779;-59
2021/10/26 03:25:37;;;;;;;;;52.75;43.75;13.10;42.70;;;;;;5096159;28;8780;-59
2021/10/26 03:28:03;;;;;;;;;60.25;51.00;13.10;42.90;;;;;;5088939;28;8771;-59
2021/10/26 03:30:29;;;;;;;;;58.75;50.25;13.00;42.80;;;;;;5076085;28;8797;-59
2021/10/26 03:32:55;;;;;;;;;46.25;41.50;13.00;43.00;;;;;;5075838;28;8892;-58
2021/10/26 03:35:21;;;;;;;;;60.25;50.75;13.00;43.00;;;;;;5075643;28;8770;-59
2021/10/26 03:37:46;;;;;;;;;61.50;51.25;12.90;43.10;;;;;;5075505;28;8908;-59
2021/10/26 03:40:13;;;;;;;;;66.00;55.00;12.90;43.20;;;;;;5086745;28;8835;-59
2021/10/26 03:42:39;;;;;;;;;65.75;54.50;12.90;43.30;;;;;;5075575;28;8846;-59
2021/10/26 03:45:07;;;;;;;;;59.25;49.25;12.80;43.40;;;;;;5075482;28;8786;-59
2021/10/26 03:47:38;;;;;;;;;66.75;56.00;12.80;43.70;;;;;;5075457;28;8773;-59
2021/10/26 03:50:04;;;;;;;;;68.25;56.75;12.70;43.70;;;;;;5075203;28;8794;-60
2021/10/26 03:52:30;;;;;;;;;71.25;58.25;12.70;43.50;;;;;;5075726;28;8797;-58
2021/10/26 03:54:57;;;;;;;;;70.00;58.00;12.70;43.60;;;;;;5075344;28;8766;-59
2021/10/26 03:57:23;;;;;;;;;89.75;80.75;12.70;43.80;;;;;;5075212;28;8790;-59
2021/10/26 03:59:49;;;;;;;;;90.50;82.00;12.60;43.80;;;;;;5075162;28;8802;-59
2021/10/26 04:02:25;;;;;;;;;76.50;62.75;12.60;43.90;;;;;;5075117;28;8793;-59
2021/10/26 04:04:56;;;;;;;;;88.25;80.25;12.60;44.10;;;;;;5075362;28;9442;-59
2021/10/26 04:07:22;;;;;;;;;91.50;84.25;12.60;44.30;;;;;;5075559;28;8806;-59
2021/10/26 04:14:43;;;;;;;;;95.50;92.00;12.60;44.40;;;;;;5074945;28;8774;-59
2021/10/26 04:17:09;;;;;;;;;87.00;75.75;12.60;44.20;;;;;;5075149;28;8754;-59
2021/10/26 04:19:35;;;;;;;;;134.25;122.75;12.60;44.10;;;;;;5075016;28;8832;-59
2021/10/26 04:22:01;;;;;;;;;146.00;134.75;12.50;44.00;;;;;;5074990;28;9475;-60
2021/10/26 04:24:27;;;;;;;;;119.75;112.25;12.60;44.20;;;;;;5075001;28;8870;-58
2021/10/26 04:26:53;;;;;;;;;128.25;119.50;12.50;44.10;;;;;;5074653;28;8766;-58
2021/10/26 04:29:19;;;;;;;;;128.25;123.00;12.50;44.20;;;;;;5074773;28;8793;-58
2021/10/26 04:31:45;;;;;;;;;124.50;121.00;12.50;44.10;;;;;;5074970;28;8911;-58
2021/10/26 04:34:10;;;;;;;;;147.00;140.75;12.40;44.30;;;;;;5074912;28;9442;-58
2021/10/26 04:36:36;;;;;;;;;134.25;132.00;12.40;44.30;;;;;;5074384;28;8838;-58
2021/10/26 04:39:04;;;;;;;;;115.00;110.75;12.40;44.40;;;;;;5077690;28;8820;-58
2021/10/26 04:41:32;;;;;;;;;115.00;111.50;12.40;44.50;;;;;;5083980;28;8790;-58
2021/10/26 04:44:02;;;;;;;;;104.25;100.00;12.40;44.40;;;;;;5074517;28;8825;-58
2021/10/26 04:46:31;;;;;;;;;107.25;102.50;12.40;44.50;;;;;;5074351;28;8786;-58
2021/10/26 04:48:57;;;;;;;;;112.75;106.50;12.30;44.40;;;;;;5056680;28;8808;-59
2021/10/26 04:51:23;;;;;;;;;113.25;110.25;12.30;44.40;;;;;;5074326;28;8897;-59
2021/10/26 04:53:48;;;;;;;;;121.00;116.75;12.30;44.50;;;;;;5074324;28;8770;-58
2021/10/26 04:56:14;;;;;;;;;125.25;121.25;12.30;44.50;;;;;;5074300;28;8770;-58
2021/10/26 04:58:40;;;;;;;;;115.00;113.50;12.20;44.40;;;;;;5074259;28;8794;-59
2021/10/26 05:01:06;;;;;;;;;131.25;127.75;12.20;44.40;;;;;;5074526;28;8823;-59
2021/10/26 05:03:32;;;;;;;;;123.50;121.75;12.20;44.40;;;;;;5073837;28;9447;-58
2021/10/26 05:05:58;;;;;;;;;132.50;127.25;12.10;44.40;;;;;;5074131;28;8766;-58
2021/10/26 05:08:25;;;;;;;;;111.75;107.25;12.10;44.30;;;;;;5074155;28;8850;-58
2021/10/26 05:10:51;;;;;;;;;122.50;119.50;12.10;44.30;;;;;;5074165;28;8774;-58
2021/10/26 05:13:17;;;;;;;;;110.00;107.00;12.00;44.40;;;;;;5074408;28;8774;-57
2021/10/26 05:15:43;;;;;;;;;97.50;93.25;11.90;44.10;;;;;;5074015;28;8879;-57
2021/10/26 05:18:14;;;;;;;;;101.00;100.50;11.90;44.00;;;;;;5076366;28;8884;-57
2021/10/26 05:20:40;;;;;;;;;110.50;105.25;11.90;44.00;;;;;;5082538;28;8782;-58
2021/10/26 05:23:07;;;;;;;;;120.50;118.75;11.90;44.20;;;;;;5091140;28;8768;-59
2021/10/26 05:25:33;;;;;;;;;123.50;117.25;11.90;44.20;;;;;;5098358;28;8854;-59
2021/10/26 05:28:00;;;;;;;;;97.75;93.00;11.80;44.30;;;;;;5098349;28;8775;-59
2021/10/26 05:30:26;;;;;;;;;115.75;108.25;11.80;44.40;;;;;;5098331;28;8772;-59
2021/10/26 05:32:52;;;;;;;;;128.00;121.75;11.80;44.40;;;;;;5094884;28;8793;-59
2021/10/26 05:35:18;;;;;;;;;130.25;123.75;11.80;44.40;;;;;;5089249;28;8773;-59
2021/10/26 05:37:44;;;;;;;;;128.75;127.00;11.80;44.30;;;;;;5090987;28;9015;-59
2021/10/26 05:40:10;;;;;;;;;128.75;125.25;11.80;44.30;;;;;;5096024;28;8803;-60
2021/10/26 05:42:36;;;;;;;;;116.75;115.50;11.80;44.10;;;;;;5087646;28;8782;-60
2021/10/26 05:45:03;;;;;;;;;112.75;111.25;11.80;44.10;;;;;;5077471;28;8882;-58
2021/10/26 05:47:30;;;;;;;;;96.75;95.50;11.70;43.80;;;;;;5082871;28;8809;-60
2021/10/26 05:49:55;;;;;;;;;96.25;95.00;11.70;44.00;;;;;;5083833;28;8770;-59
2021/10/26 05:52:21;;;;;;;;;95.00;91.75;11.70;44.00;;;;;;5077941;28;8774;-60
2021/10/26 05:54:47;;;;;;;;;94.00;88.00;11.70;44.30;;;;;;5084272;28;8788;-59
2021/10/26 05:57:13;;;;;;;;;97.25;88.25;11.70;44.60;;;;;;5087972;28;8808;-59
2021/10/26 05:59:39;;;;;;;;;102.25;96.00;11.70;44.70;;;;;;5078574;28;8798;-60
2021/10/26 06:02:05;;;;;;;;;92.25;86.00;11.60;44.70;;;;;;5077441;28;8750;-60
2021/10/26 06:04:30;;;;;;;;;91.50;84.50;11.70;45.20;;;;;;5077580;28;8774;-59
2021/10/26 06:06:56;;;;;;;;;95.00;90.00;11.70;45.20;;;;;;5082143;28;8825;-59
2021/10/26 06:09:23;;;;;;;;;90.50;83.50;11.70;45.10;;;;;;5086935;28;8802;-60
2021/10/26 06:11:51;;;;;;;;;91.50;80.75;11.70;45.10;;;;;;5088244;28;8774;-60
2021/10/26 06:14:17;;;;;;;;;91.00;84.50;11.70;45.00;;;;;;5085451;28;8852;-60
2021/10/26 06:16:43;;;;;;;;;90.00;78.00;11.70;45.20;;;;;;5085545;28;8810;-60
2021/10/26 06:19:10;;;;;;;;;87.50;77.00;11.70;45.50;;;;;;5086329;28;9485;-60
2021/10/26 06:21:36;;;;;;;;;84.75;71.25;11.80;45.70;;;;;;5086332;28;8908;-60
2021/10/26 06:24:02;;;;;;;;;94.00;86.50;11.80;45.80;;;;;;5088670;28;8768;-59
2021/10/26 06:26:29;;;;;;;;;88.25;78.00;11.80;45.50;;;;;;5083736;28;8794;-59
2021/10/26 06:28:57;;;;;;;;;86.50;74.00;11.90;45.60;;;;;;5069064;28;8884;-59
2021/10/26 06:31:23;;;;;;;;;85.25;73.00;11.90;45.80;;;;;;5092557;28;8871;-60
2021/10/26 06:33:49;;;;;;;;;91.25;85.75;12.00;45.90;;;;;;5088323;28;8766;-55
2021/10/26 06:36:15;;;;;;;;;92.00;85.75;12.00;45.80;;;;;;5084715;28;8808;-58
2021/10/26 06:38:41;;;;;;;;;100.75;95.75;12.10;45.80;;;;;;5078655;28;8919;-58
2021/10/26 06:41:07;;;;;;;;;98.25;97.75;12.10;45.80;;;;;;5089240;28;8879;-55
2021/10/26 06:43:34;;;;;;;;;95.00;92.25;12.20;45.70;;;;;;5079375;28;8797;-55
2021/10/26 06:46:00;;;;;;;;;112.50;108.50;12.20;46.60;;;;;;5088143;28;9453;-55
2021/10/26 06:48:26;;;;;;;;;109.00;104.75;12.40;45.60;;;;;;5086127;28;8808;-56
2021/10/26 06:50:54;;;;;;;;;116.50;116.50;12.40;45.30;;;;;;5082609;28;8814;-55
2021/10/26 06:53:21;;;;;;;;;123.75;121.50;12.50;45.40;;;;;;5086192;28;8782;-57
2021/10/26 06:55:47;;;;;;;;;132.00;128.50;12.50;45.00;;;;;;5088124;28;9433;-57
2021/10/26 06:58:13;;;;;;;;;120.75;120.75;12.50;44.90;;;;;;5076529;28;9501;-57
2021/10/26 07:00:42;;;;;;;;;141.75;137.00;12.50;44.60;;;;;;5076238;28;8750;-60
2021/10/26 07:03:09;;;;;;;;;134.50;133.25;12.60;44.90;;;;;;5076111;28;8808;-59
2021/10/26 07:05:36;;;;;;;;;127.50;121.00;12.60;44.90;;;;;;5092637;28;8764;-60
2021/10/26 07:08:02;;;;;;;;;114.00;113.50;12.70;44.90;;;;;;5096276;28;8844;-60
2021/10/26 07:10:28;;;;;;;;;126.25;122.00;12.60;45.10;;;;;;5089180;28;8774;-61
2021/10/26 07:12:55;;;;;;;;;124.00;122.75;12.70;45.40;;;;;;5089184;28;8786;-60
2021/10/26 07:15:21;;;;;;;;;133.75;130.25;12.80;45.30;;;;;;5091240;28;8760;-60
2021/10/26 07:17:48;;;;;;;;;127.75;124.25;12.90;45.50;;;;;;5095187;28;8788;-61
2021/10/26 07:20:15;;;;;;;;;137.50;135.75;12.90;45.30;;;;;;5092773;28;8822;-55
2021/10/26 07:22:49;;;;;;;;;142.75;139.50;13.00;45.10;;;;;;5095127;28;9448;-60
2021/10/26 07:25:14;;;;;;;;;148.25;144.25;13.10;45.20;;;;;;5092692;28;8770;-60
2021/10/26 07:27:40;;;;;;;;;160.00;155.25;13.20;45.10;;;;;;5094807;28;8764;-60
2021/10/26 07:30:09;;;;;;;;;160.25;158.00;13.30;44.90;;;;;;5094840;28;9562;-59
2021/10/26 07:32:35;;;;;;;;;177.25;171.50;13.30;45.00;;;;;;5092385;28;8806;-61
2021/10/26 07:35:02;;;;;;;;;182.75;177.25;13.40;44.50;;;;;;5094701;28;8764;-60
2021/10/26 07:37:34;;;;;;;;;190.75;181.75;13.50;44.30;;;;;;5093979;28;8796;-61
2021/10/26 07:40:01;;;;;;;;;172.00;165.75;13.60;44.40;;;;;;5093826;28;8804;-60
2021/10/26 07:42:27;;;;;;;;;171.50;165.25;13.70;44.50;;;;;;5094068;28;8756;-60
2021/10/26 07:44:54;;;;;;;;;158.50;152.75;13.70;43.90;;;;;;5094131;28;8814;-60
2021/10/26 07:47:21;;;;;;;;;101.50;99.50;13.80;43.80;;;;;;5094518;28;8798;-63
2021/10/26 07:49:48;;;;;;;;;105.75;100.00;13.90;43.40;;;;;;5094265;28;8752;-61
2021/10/26 07:52:15;;;;;;;;;104.50;102.50;13.80;42.90;;;;;;5094229;28;8732;-66
2021/10/26 07:54:47;;;;;;;;;113.00;111.00;13.70;43.60;;;;;;5074522;28;8780;-61
2021/10/26 07:57:13;;;;;;;;;90.75;84.00;13.70;44.00;;;;;;5080779;28;8800;-61
2021/10/26 07:59:39;;;;;;;;;86.75;80.00;14.00;43.30;;;;;;5086487;28;8803;-62
2021/10/26 08:02:05;;;;;;;;;84.00;72.25;14.10;42.70;;;;;;5075234;28;8758;-63
2021/10/26 08:04:31;;;;;;;;;80.00;68.25;14.00;42.10;;;;;;5081952;28;8788;-61
2021/10/26 08:06:57;;;;;;;;;81.75;70.25;14.10;42.70;;;;;;5080975;28;8778;-61
2021/10/26 08:09:22;;;;;;;;;83.50;74.25;14.20;42.70;;;;;;5085944;28;8807;-67
2021/10/26 08:11:49;;;;;;;;;83.75;72.50;14.30;42.40;;;;;;5083984;28;8781;-67
2021/10/26 08:14:15;;;;;;;;;80.50;69.25;14.40;42.50;;;;;;5086330;28;9646;-64
2021/10/26 08:16:41;;;;;;;;;70.00;57.75;14.50;42.10;;;;;;5085162;28;8793;-62
2021/10/26 08:19:07;;;;;;;;;80.75;71.75;14.60;41.90;;;;;;5085879;28;8922;-63
2021/10/26 08:21:33;;;;;;;;;74.00;60.50;14.70;42.40;;;;;;5077512;28;8855;-60
2021/10/26 08:24:00;;;;;;;;;73.00;60.00;14.70;42.20;;;;;;5080080;28;8786;-63
2021/10/26 08:26:39;;;;;;;;;67.75;56.00;14.70;41.80;;;;;;5088641;28;8823;-62
2021/10/26 08:29:16;;;;;;;;;69.50;57.75;14.60;41.90;;;;;;5076941;28;8879;-62
2021/10/26 08:32:08;;;;;;;;;74.00;60.75;14.60;41.90;;;;;;5084379;28;8808;-57
2021/10/26 08:37:48;;;;;;;;;69.75;58.00;14.70;42.40;;;;;;5083829;28;8795;-59
2021/10/26 08:40:18;;;;;;;;;75.00;62.25;14.70;41.90;;;;;;5080768;28;8814;-59
2021/10/26 08:42:48;;;;;;;;;68.00;56.25;14.80;42.80;;;;;;5080446;28;8769;-59
2021/10/26 08:45:18;;;;;;;;;69.25;57.00;14.90;42.00;;;;;;5088259;28;8819;-59
2021/10/26 08:47:45;;;;;;;;;66.25;55.50;15.00;42.10;;;;;;5074845;28;8794;-61
2021/10/26 08:50:12;;;;;;;;;64.00;53.00;15.00;41.50;;;;;;5093703;28;9428;-58
2021/10/26 08:52:37;;;;;;;;;66.75;55.50;15.00;41.70;;;;;;5094172;28;8779;-58
2021/10/26 08:55:07;;;;;;;;;66.75;55.25;15.20;41.60;;;;;;5093816;28;8771;-59
2021/10/26 08:57:34;;;;;;;;;55.00;47.00;15.20;41.60;;;;;;5088799;28;8756;-58
2021/10/26 09:00:05;;;;;;;;;61.50;51.75;15.30;41.20;;;;;;5091613;28;8865;-58
2021/10/26 09:02:35;;;;;;;;;52.75;45.00;15.30;40.90;;;;;;5094384;28;8755;-62
2021/10/26 09:05:10;;;;;;;;;43.75;39.00;15.30;40.20;;;;;;5088466;28;8756;-59
2021/10/26 09:07:36;;;;;;;;;49.50;42.00;15.40;40.00;;;;;;5094041;28;8764;-60
2021/10/26 09:10:10;;;;;;;;;40.50;37.25;15.70;39.20;;;;;;5094540;28;8745;-58
2021/10/26 09:17:51;;;;;;;;;49.25;42.50;16.20;37.90;;;;;;5094498;28;8787;-60
2021/10/26 09:20:24;;;;;;;;;48.25;42.00;16.30;37.70;;;;;;5093601;28;8811;-61
2021/10/26 09:22:55;;;;;;;;;43.00;38.50;16.40;38.40;;;;;;5094206;28;8781;-61
2021/10/26 09:25:38;;;;;;;;;48.00;42.00;16.60;37.40;;;;;;5090655;28;8768;-60
2021/10/26 09:28:17;;;;;;;;;47.00;40.50;16.70;37.00;;;;;;5081447;28;8813;-62
2021/10/26 09:31:02;;;;;;;;;44.50;39.00;16.90;37.30;;;;;;5078208;28;8876;-63
2021/10/26 09:33:32;;;;;;;;;47.75;41.00;17.00;36.20;;;;;;5073829;28;8774;-64
2021/10/26 09:36:21;;;;;;;;;40.75;37.25;17.10;36.30;;;;;;5073586;28;8806;-59
2021/10/26 09:38:47;;;;;;;;;43.75;40.00;17.10;36.10;;;;;;5080057;28;8807;-70
2021/10/26 09:41:13;;;;;;;;;46.50;39.25;17.10;36.60;;;;;;5061137;28;8814;-66
2021/10/26 09:43:39;;;;;;;;;46.25;40.00;17.20;36.00;;;;;;5073963;28;8761;-65
2021/10/26 09:46:05;;;;;;;;;39.50;36.50;17.30;36.20;;;;;;5082630;28;8949;-63
2021/10/26 09:48:34;;;;;;;;;37.00;35.00;17.20;36.10;;;;;;5093959;28;8815;-74
2021/10/26 09:51:09;;;;;;;;;48.50;41.75;17.20;36.60;;;;;;5093990;28;8860;-66
2021/10/26 09:53:36;;;;;;;;;43.25;37.50;17.30;35.80;;;;;;5094001;28;8756;-72
2021/10/26 09:56:10;;;;;;;;;41.50;36.25;17.50;35.60;;;;;;5093977;28;8768;-61
2021/10/26 09:58:36;;;;;;;;;38.75;35.25;17.70;34.50;;;;;;5087736;28;8817;-65
2021/10/26 10:01:07;;;;;;;;;47.50;41.25;17.80;35.10;;;;;;5084311;28;8804;-65
2021/10/26 10:03:33;;;;;;;;;43.00;38.00;18.20;34.70;;;;;;5088988;28;8903;-69
2021/10/26 10:06:09;;;;;;;;;43.75;38.25;18.70;33.90;;;;;;5091404;28;8764;-65
2021/10/26 10:08:39;;;;;;;;;40.50;37.00;19.40;33.10;;;;;;5087322;28;9413;-60
2021/10/26 10:11:09;;;;;;;;;39.00;36.00;20.00;32.00;;;;;;5097445;28;8874;-61
2021/10/26 10:13:39;;;;;;;;;42.75;37.50;20.40;30.70;;;;;;5093730;28;8767;-63
2021/10/26 10:16:10;;;;;;;;;38.25;35.25;20.80;30.40;;;;;;5080523;28;8877;-61
2021/10/26 10:18:37;;;;;;;;;40.00;35.75;21.10;29.80;;;;;;5083633;28;8804;-61
2021/10/26 10:21:05;;;;;;;;;43.00;38.00;21.30;29.80;;;;;;5097498;28;8783;-61
2021/10/26 10:23:33;;;;;;;;;38.25;35.00;21.70;29.30;;;;;;5087140;28;8776;-67
2021/10/26 10:26:01;;;;;;;;;33.75;32.75;22.10;28.20;;;;;;5086031;28;8782;-67
2021/10/26 10:28:32;;;;;;;;;37.67;34.67;22.20;27.60;;;;;;5077113;28;8766;-68
2021/10/26 10:31:00;;;;;;;;;37.67;35.00;22.50;27.60;;;;;;5081259;28;8782;-62
2021/10/26 10:33:27;;;;;;;;;38.00;35.33;23.20;27.10;;;;;;5081556;28;8790;-63
2021/10/26 10:35:58;;;;;;;;;34.00;32.00;23.90;27.00;;;;;;5090258;28;8800;-60
2021/10/26 10:38:26;;;;;;;;;28.67;28.67;24.50;25.80;;;;;;5066707;28;8814;-59
2021/10/26 10:41:40;;;;;;;;;35.00;32.67;25.00;24.80;;;;;;5085820;28;8788;-60
2021/10/26 10:44:32;;;;;;;;;36.00;33.00;25.40;24.50;;;;;;5079844;28;8780;-61
2021/10/26 10:47:01;;;;;;;;;35.00;33.67;25.70;23.40;;;;;;5086237;28;8907;-59
2021/10/26 10:49:37;;;;;;;;;33.67;32.67;25.90;23.90;;;;;;5069790;28;8812;-59
2021/10/26 10:52:10;;;;;;;;;35.33;33.00;26.30;22.90;;;;;;5092437;28;8784;-60
2021/10/26 10:54:41;;;;;;;;;31.33;31.00;26.60;23.80;;;;;;5095010;28;8756;-60
2021/10/26 10:57:32;;;;;;;;;33.33;32.33;27.20;22.40;;;;;;5084167;28;8786;-59
2021/10/26 11:00:00;;;;;;;;;36.33;34.00;27.90;22.30;;;;;;5078910;28;8809;-61
2021/10/26 11:02:47;;;;;;;;;31.67;31.67;28.50;21.50;;;;;;5083746;28;8772;-60
2021/10/26 11:08:36;;;;;;;;;37.00;34.33;29.70;20.80;;;;;;5085083;28;8739;-65
2021/10/26 11:11:02;;;;;;;;;42.67;38.00;30.30;20.60;;;;;;5088132;28;8772;-62
2021/10/26 11:13:31;;;;;;;;;36.67;34.67;30.80;20.50;;;;;;5085449;28;9440;-62
2021/10/26 11:16:03;;;;;;;;;36.67;35.00;31.20;20.20;;;;;;5087198;28;8874;-63
2021/10/26 11:18:40;;;;;;;;;36.67;33.67;31.50;19.40;;;;;;5080985;28;8786;-63
2021/10/26 11:21:08;;;;;;;;;37.67;34.00;31.60;19.40;;;;;;5082281;28;8762;-62
2021/10/26 11:23:44;;;;;;;;;33.00;31.67;32.00;19.60;;;;;;5084783;28;8770;-63
2021/10/26 11:26:14;;;;;;;;;36.67;34.67;32.20;19.30;;;;;;5075818;28;8762;-62
2021/10/26 11:28:46;;;;;;;;;44.33;38.33;32.40;19.10;;;;;;5075858;28;8778;-64
2021/10/26 11:31:16;;;;;;;;;39.00;36.00;32.40;18.70;;;;;;5078231;28;8774;-63
2021/10/26 11:33:59;;;;;;;;;33.33;32.33;32.50;18.80;;;;;;5086263;28;8764;-62
2021/10/26 11:36:31;;;;;;;;;36.67;34.00;32.80;18.40;;;;;;5084416;28;8873;-61
2021/10/26 11:38:59;;;;;;;;;35.00;34.00;33.00;18.40;;;;;;5084913;28;8854;-62
2021/10/26 11:41:30;;;;;;;;;38.33;35.33;33.20;18.40;;;;;;5095627;28;8783;-62
2021/10/26 11:44:07;;;;;;;;;40.33;36.00;33.20;17.80;;;;;;5094880;28;9725;-62
2021/10/26 11:46:45;;;;;;;;;42.67;37.67;33.20;18.10;;;;;;5079662;28;8797;-61
2021/10/26 11:49:21;;;;;;;;;36.33;34.33;33.40;18.10;;;;;;5088529;28;8775;-62
2021/10/26 11:51:49;;;;;;;;;40.33;36.00;33.50;17.80;;;;;;5095294;28;8889;-61
2021/10/26 11:54:52;;;;;;;;;37.33;35.33;33.70;17.90;;;;;;5077359;28;8970;-62
2021/10/26 11:57:22;;;;;;;;;41.33;36.33;33.90;17.80;;;;;;5084612;28;8792;-62
2021/10/26 11:59:51;;;;;;;;;39.33;35.67;34.00;17.40;;;;;;5080627;28;8943;-63
2021/10/26 12:02:19;;;;;;;;;38.67;35.00;34.10;17.60;;;;;;5075000;28;8762;-63
2021/10/26 12:04:56;;;;;;;;;41.67;35.67;34.00;17.50;;;;;;5074764;28;9495;-61
2021/10/26 12:07:28;;;;;;;;;37.67;34.00;34.20;17.50;;;;;;5085395;28;8780;-61
2021/10/26 12:09:56;;;;;;;;;35.33;33.00;34.40;16.90;;;;;;5081598;28;8970;-61
2021/10/26 12:12:25;;;;;;;;;33.00;32.00;34.40;16.80;;;;;;5084740;28;8830;-61
2021/10/26 12:14:53;;;;;;;;;41.33;36.67;34.70;17.60;;;;;;5095254;28;8772;-61
2021/10/26 12:17:28;;;;;;;;;43.67;37.67;34.90;17.00;;;;;;5088636;28;8800;-61
2021/10/26 12:20:07;;;;;;;;;33.33;32.33;34.90;16.90;;;;;;5093321;28;9761;-62
2021/10/26 12:22:35;;;;;;;;;37.00;34.33;35.00;16.60;;;;;;5095053;28;8838;-62
2021/10/26 12:25:22;;;;;;;;;37.00;34.00;35.10;16.90;;;;;;5089572;28;8786;-63
2021/10/26 12:27:53;;;;;;;;;37.33;34.33;35.00;16.70;;;;;;5083621;28;8814;-62
2021/10/26 12:30:54;;;;;;;;;33.00;32.00;35.00;16.50;;;;;;5078236;28;8982;-60
2021/10/26 12:33:21;;;;;;;;;38.00;35.00;34.70;16.80;;;;;;5011834;28;8862;-62
2021/10/26 12:35:56;;;;;;;;;40.00;36.33;34.80;17.10;;;;;;5012530;28;8772;-61
2021/10/26 12:38:35;;;;;;;;;39.00;35.00;34.70;16.70;;;;;;5012637;28;8783;-61
2021/10/26 12:41:13;;;;;;;;;36.67;34.00;34.70;16.80;;;;;;4994862;28;8794;-63
2021/10/26 12:43:41;;;;;;;;;34.67;32.33;34.70;16.90;;;;;;4993119;28;8794;-63
2021/10/26 12:46:19;;;;;;;;;36.00;33.00;34.90;16.60;;;;;;4992801;28;8790;-65
2021/10/26 12:48:46;;;;;;;;;31.67;30.67;34.90;16.20;;;;;;5000596;28;8799;-68
2021/10/26 12:51:20;;;;;;;;;33.67;32.00;34.80;16.80;;;;;;5012710;28;8769;-68
2021/10/26 12:53:46;;;;;;;;;35.33;33.67;34.90;16.50;;;;;;5012408;28;8939;-62
2021/10/26 12:56:18;;;;;;;;;30.00;30.00;35.00;16.30;;;;;;5012596;28;9433;-64